Latest Weather Observations for Maria Island

IDT60901

Issued at 9:15 pm EST Thursday 24 April 2014 (issued every 10 minutes, with the page automatically refreshed every 10 minutes)

About weather observations | Map of Hobart area stations | Latest observations for Hobart area | Other Formats
Station Details ID: 092124 Name: MARIA ISLAND (POINT LESUEUR) Lat: -42.66 Lon: 148.02 Height: 28.0 m
Data from the previous 72 hours. | See also: Recent months at Maria Island
Date/Time
EST
Tmp

°C
App
Tmp
°C
Dew
Point
°C
Rel
Hum
%
Delta-T

°C
Wind Press
QNH
hPa
Press
MSL
hPa
Rain
since
9 am
mm
Dir
 
Spd
km/h
Gust
km/h
Spd
kts
Gust
kts
24/09:00pm 9.1 4.2 1.8 60 3.0 W 17 22 9 12 1016.0 1016.0 0.0
24/08:30pm 9.2 3.3 1.6 59 3.1 WNW 22 26 12 14 1015.6 - 0.0
24/08:00pm 9.1 4.8 1.3 58 3.2 WNW 13 17 7 9 1015.3 1015.3 0.0
24/07:30pm 9.5 4.8 1.2 56 3.4 W 15 26 8 14 1015.0 - 0.0
24/07:00pm 9.7 3.8 1.4 56 3.4 WSW 22 33 12 18 1014.1 1014.1 0.0
24/06:30pm 9.5 3.9 0.9 55 3.5 W 20 32 11 17 1013.8 - 0.0
24/06:00pm 9.6 4.2 1.5 57 3.4 W 19 26 10 14 1012.9 1012.9 0.0
24/05:30pm 9.9 4.1 2.3 59 3.2 W 22 32 12 17 1012.1 - 0.0
24/05:00pm 10.5 2.8 2.1 56 3.6 W 32 43 17 23 1011.3 1011.3 0.0
24/04:30pm 11.2 2.5 1.7 52 4.0 W 37 44 20 24 1010.5 - 0.0
24/04:00pm 11.8 3.9 2.5 53 4.0 W 33 41 18 22 1010.1 1010.1 0.0
24/03:30pm 11.8 5.7 2.5 53 4.0 SW 24 37 13 20 1009.8 - 0.0
24/03:00pm 11.5 3.9 3.0 56 3.7 WSW 32 43 17 23 1009.2 1009.2 0.0
24/02:41pm 11.9 4.9 2.1 51 4.2 WSW 28 48 15 26 1008.9 - 0.0
24/02:30pm 11.6 5.7 1.5 50 4.3 WSW 22 33 12 18 1008.7 - 0.0
24/02:05pm 11.2 3.6 2.8 56 3.6 WSW 32 52 17 28 1008.0 - 0.0
24/02:00pm 11.0 2.8 2.6 56 3.6 W 35 52 19 28 1008.2 1008.2 0.0
24/01:35pm 12.1 3.5 2.6 52 4.1 WSW 37 59 20 32 1007.2 - 0.0
24/01:30pm 12.5 4.7 2.7 51 4.3 WSW 33 50 18 27 1007.2 - 0.0
24/01:11pm 12.3 4.0 1.9 49 4.5 WSW 35 54 19 29 1006.9 - 0.0
24/01:00pm 12.6 4.0 2.7 51 4.4 W 37 44 20 24 1006.7 1006.6 0.0
24/12:30pm 12.1 3.8 2.3 51 4.2 WSW 35 56 19 30 1006.5 - 0.0
24/12:20pm 12.6 4.8 3.0 52 4.2 W 33 54 18 29 1006.4 - 0.0
24/12:12pm 12.3 4.6 2.5 51 4.3 SW 32 37 17 20 1006.3 - 0.0
24/12:00pm 12.5 3.8 4.0 56 3.8 W 39 50 21 27 1006.3 1006.2 0.0
24/11:30am 12.5 4.1 3.5 54 4.0 WSW 37 48 20 26 1005.8 - 0.0
24/11:01am 12.5 5.0 4.2 57 3.8 WSW 33 57 18 31 1004.9 - 0.0
24/11:00am 12.3 4.9 4.0 57 3.8 WSW 32 50 17 27 1005.1 1005.0 0.0
24/10:30am 12.6 4.1 5.3 61 3.4 W 39 54 21 29 1004.3 - 0.0
24/10:00am 12.4 5.6 5.1 61 3.4 WSW 30 44 16 24 1003.8 1003.7 0.0
24/09:30am 11.8 4.7 5.4 65 3.0 W 32 43 17 23 1003.2 - 0.0
24/09:00am 11.4 3.0 5.7 68 2.7 W 39 54 21 29 1002.6 1002.5 1.4
24/08:54am 11.7 4.2 6.4 70 2.5 W 35 48 19 26 1002.7 - 1.4
24/08:30am 10.6 5.8 5.8 72 2.2 W 20 26 11 14 1002.4 - 1.4
24/08:00am 10.7 5.3 6.3 74 2.1 WNW 24 30 13 16 1002.2 1002.1 1.4
24/07:30am 10.8 5.6 5.6 70 2.4 WNW 22 32 12 17 1001.3 - 1.4
24/07:00am 10.5 6.5 6.6 77 1.8 NW 17 22 9 12 1000.3 1000.2 1.4
24/06:30am 10.7 6.9 7.4 80 1.6 WNW 17 24 9 13 1001.2 - 1.2
24/06:00am 11.3 4.9 7.0 75 2.1 W 30 39 16 21 1000.9 1000.8 1.2
24/05:30am 11.3 4.6 8.2 81 1.5 W 33 46 18 25 1000.4 - 1.2
24/05:27am 11.4 5.1 9.0 85 1.2 W 32 35 17 19 1000.4 - 1.2
24/05:21am 11.3 0.3 8.5 83 1.4 W 56 76 30 41 1000.1 - 1.0
24/05:16am 12.4 0.2 8.9 79 1.8 WNW 63 74 34 40 999.5 - 0.6
24/05:15am 14.5 4.7 11.3 81 1.7 NNW 54 74 29 40 998.9 - 0.0
24/05:00am 14.5 4.6 9.9 74 2.4 N 52 61 28 33 997.5 997.5 0.0
24/04:30am 14.6 6.2 9.8 73 2.5 N 44 59 24 32 998.6 - 0.0
24/04:00am 14.3 5.8 9.1 71 2.7 N 44 56 24 30 998.8 998.8 0.0
24/03:30am 14.1 5.6 9.1 72 2.5 N 44 54 24 29 999.2 - 0.0
24/03:00am 14.2 5.9 9.4 73 2.5 NNW 43 54 23 29 999.8 999.7 0.0
24/02:30am 14.2 5.9 9.2 72 2.6 NNW 43 54 23 29 1000.8 - 0.0
24/02:00am 14.4 7.2 9.2 71 2.7 N 37 46 20 25 1001.9 1001.8 0.0
24/01:30am 14.4 7.9 9.0 70 2.7 N 33 44 18 24 1002.6 - 0.0
24/01:00am 14.3 7.1 9.1 71 2.7 N 37 46 20 25 1003.3 1003.2 0.0
24/12:30am 14.5 6.0 9.3 71 2.7 N 44 59 24 32 1003.4 - 0.0
24/12:00am 14.4 6.7 8.8 69 2.9 N 39 50 21 27 1003.8 1003.7 0.0
 
Date/Time
EST
Tmp

°C
App
Tmp
°C
Dew
Point
°C
Rel
Hum
%
Delta-T

°C
Wind Press
QNH
hPa
Press
MSL
hPa
Rain
since
9 am
mm
Dir
 
Spd
km/h
Gust
km/h
Spd
kts
Gust
kts
23/11:30pm 14.1 7.1 8.5 69 2.8 N 35 44 19 24 1004.2 - 0.0
23/11:00pm 13.8 6.8 8.4 70 2.7 N 35 43 19 23 1005.2 1005.1 0.0
23/10:30pm 13.5 8.0 9.0 74 2.3 N 28 35 15 19 1005.8 - 0.0
23/10:00pm 13.4 6.9 8.9 74 2.3 N 33 37 18 20 1006.4 1006.3 0.0
23/09:30pm 13.8 6.6 9.3 74 2.3 N 37 43 20 23 1006.7 - 0.0
23/09:00pm 13.9 7.5 9.3 74 2.4 N 33 39 18 21 1007.0 1007.0 0.0
23/08:30pm 14.1 7.2 8.9 71 2.6 N 35 43 19 23 1007.1 - 0.0
23/08:00pm 14.1 6.4 8.5 69 2.8 N 39 44 21 24 1007.3 1007.3 0.0
23/07:30pm 14.4 6.3 8.8 69 2.8 N 41 48 22 26 1007.3 - 0.0
23/07:00pm 14.6 7.9 8.3 66 3.2 N 33 39 18 21 1007.7 1007.7 0.0
23/06:30pm 14.9 8.3 8.6 66 3.2 N 33 37 18 20 1008.1 - 0.0
23/06:00pm 15.3 8.1 7.8 61 3.8 N 35 41 19 22 1007.9 1007.9 0.0
23/05:30pm 15.5 10.4 7.8 60 3.9 N 24 28 13 15 1008.0 - 0.0
23/05:00pm 15.8 10.0 7.8 59 4.0 N 28 33 15 18 1008.1 1008.1 0.0
23/04:30pm 16.0 10.8 7.2 56 4.4 N 24 30 13 16 1008.4 - 0.0
23/04:00pm 16.3 12.6 8.0 58 4.2 NNW 17 20 9 11 1008.8 1008.8 0.0
23/03:30pm 16.2 11.5 7.7 57 4.3 NNW 22 26 12 14 1008.9 - 0.0
23/03:00pm 16.4 11.9 7.1 54 4.6 N 20 22 11 12 1009.1 1009.1 0.0
23/02:30pm 16.4 12.0 7.6 56 4.4 NNW 20 24 11 13 1009.6 - 0.0
23/02:00pm 16.9 12.5 7.3 53 4.8 NNW 20 24 11 13 1010.0 1010.0 0.0
23/01:30pm 16.1 11.2 7.1 55 4.5 N 22 30 12 16 1010.2 - 0.0
23/01:00pm 16.4 11.7 7.9 57 4.3 N 22 30 12 16 1010.7 1010.7 0.0
23/12:30pm 16.3 11.1 7.3 55 4.5 N 24 30 13 16 1011.1 - 0.0
23/12:00pm 16.5 11.2 6.6 52 4.9 N 24 28 13 15 1011.6 1011.6 0.0
23/11:30am 15.5 12.3 7.0 57 4.2 N 13 19 7 10 1012.2 - 0.0
23/11:00am 15.4 11.7 6.4 55 4.4 N 15 19 8 10 1012.6 1012.6 0.0
23/10:30am 14.2 11.6 7.7 65 3.2 NNE 11 15 6 8 1013.0 - 0.0
23/10:00am 14.0 11.9 8.2 68 2.9 N 9 13 5 7 1013.7 1013.7 0.0
23/09:30am 13.7 11.2 8.1 69 2.8 N 11 15 6 8 1013.9 - 0.0
23/09:00am 12.9 10.9 7.1 68 2.8 N 7 9 4 5 1014.1 1014.1 0.0
23/08:30am 12.4 10.5 6.7 68 2.7 NW 6 7 3 4 1014.2 - 0.0
23/08:00am 12.5 10.4 6.8 68 2.7 N 7 11 4 6 1014.1 1014.1 0.0
23/07:30am 11.3 8.3 5.8 69 2.6 WNW 11 13 6 7 1014.1 - 0.0
23/07:00am 11.1 6.9 5.8 70 2.5 W 17 20 9 11 1013.9 1013.9 0.0
23/06:30am 10.7 7.8 6.5 75 2.0 WNW 11 15 6 8 1013.9 - 0.0
23/06:00am 10.6 7.0 6.6 76 1.9 NNW 15 22 8 12 1013.9 1013.9 0.0
23/05:30am 10.6 7.5 7.3 80 1.6 WNW 13 17 7 9 1013.8 - 0.0
23/05:00am 11.4 8.8 7.9 79 1.7 NNW 11 13 6 7 1013.9 1013.9 0.0
23/04:30am 11.2 8.3 6.5 73 2.2 NNW 11 13 6 7 1013.8 - 0.0
23/04:00am 10.8 8.6 6.0 72 2.2 WNW 7 9 4 5 1013.5 1013.5 0.0
23/03:30am 11.2 8.7 6.5 73 2.2 NW 9 11 5 6 1013.6 - 0.0
23/03:00am 11.1 8.3 6.8 75 2.0 WNW 11 13 6 7 1013.6 1013.6 0.0
23/02:30am 11.9 8.4 7.0 72 2.3 NW 15 17 8 9 1013.7 - 0.0
23/02:00am 11.5 7.4 6.4 71 2.4 WNW 17 20 9 11 1013.7 1013.7 0.0
23/01:30am 11.7 7.3 6.6 71 2.4 NW 19 22 10 12 1013.6 - 0.0
23/01:00am 11.3 7.8 7.4 77 1.9 NW 15 19 8 10 1013.7 1013.7 0.0
23/12:30am 11.6 7.7 7.3 75 2.1 WNW 17 20 9 11 1013.8 - 0.0
23/12:00am 11.4 8.5 8.3 81 1.5 NW 13 15 7 8 1013.5 1013.5 0.0
 
Date/Time
EST
Tmp

°C
App
Tmp
°C
Dew
Point
°C
Rel
Hum
%
Delta-T

°C
Wind Press
QNH
hPa
Press
MSL
hPa
Rain
since
9 am
mm
Dir
 
Spd
km/h
Gust
km/h
Spd
kts
Gust
kts
22/11:30pm 11.9 9.7 6.4 69 2.6 NW 7 11 4 6 1013.4 - 0.0
22/11:00pm 11.9 8.6 6.4 69 2.6 WNW 13 17 7 9 1013.4 1013.4 0.0
22/10:30pm 11.8 8.9 6.5 70 2.5 W 11 15 6 8 1013.5 - 0.0
22/10:00pm 12.3 8.8 7.4 72 2.4 W 15 17 8 9 1013.0 1013.0 0.0
22/09:30pm 12.6 10.1 6.4 66 2.9 W 9 13 5 7 1012.6 - 0.0
22/09:00pm 12.8 10.7 8.3 74 2.2 NW 9 9 5 5 1012.2 1012.2 0.0
22/08:30pm 13.4 9.2 5.8 60 3.6 NW 17 20 9 11 1011.8 - 0.0
22/08:00pm 13.8 9.4 4.9 55 4.1 NW 17 19 9 10 1011.6 1011.6 0.0
22/07:30pm 14.1 9.4 5.2 55 4.2 NW 19 26 10 14 1011.3 - 0.0
22/07:00pm 14.4 10.4 5.0 53 4.4 NW 15 22 8 12 1010.8 1010.8 0.0
22/06:30pm 14.4 10.0 5.0 53 4.4 NW 17 20 9 11 1010.4 - 0.0
22/06:00pm 14.6 9.6 4.6 51 4.7 WNW 20 26 11 14 1009.9 1009.9 0.0
22/05:30pm 14.9 10.0 4.9 51 4.7 WNW 20 24 11 13 1009.5 - 0.0
22/05:00pm 15.6 10.1 5.8 52 4.7 WNW 24 32 13 17 1008.9 1008.9 0.0
22/04:30pm 16.6 10.9 4.9 46 5.6 WNW 24 32 13 17 1008.5 - 0.0
22/04:00pm 16.9 13.1 7.5 54 4.7 WSW 17 26 9 14 1008.3 1008.3 0.0
22/03:30pm 16.6 11.5 7.5 55 4.6 W 24 30 13 16 1007.9 - 0.0
22/03:00pm 17.1 11.4 8.5 57 4.4 WSW 28 35 15 19 1007.4 1007.4 0.0
22/02:30pm 17.6 11.2 9.2 58 4.4 WSW 33 41 18 22 1007.1 - 0.0
22/02:00pm 17.7 11.5 9.3 58 4.4 W 32 43 17 23 1006.8 1006.7 0.0
22/01:30pm 18.0 11.8 9.4 57 4.5 WSW 32 39 17 21 1006.2 - 0.0
22/01:00pm 19.1 13.4 8.4 50 5.6 W 28 35 15 19 1005.9 1005.8 0.0
22/12:30pm 18.4 12.6 7.8 50 5.4 W 28 43 15 23 1005.8 - 0.0
22/12:00pm 18.0 15.6 11.3 65 3.7 NNW 15 22 8 12 1006.1 1006.0 0.0
22/11:30am 17.6 15.5 13.7 78 2.2 N 17 20 9 11 1006.1 - 0.0
22/11:00am 17.0 14.6 13.7 81 1.9 N 19 20 10 11 1005.9 1005.8 0.0
22/10:30am 16.9 14.8 13.6 81 1.9 N 17 19 9 10 1005.6 - 0.0
22/10:00am 16.6 14.4 13.3 81 1.9 N 17 20 9 11 1005.7 1005.6 0.0
22/09:30am 16.5 14.0 13.4 82 1.7 N 19 22 10 12 1005.7 - 0.0
22/09:00am 16.6 13.5 13.3 81 1.9 N 22 26 12 14 1005.4 1005.3 5.2
22/08:30am 16.5 12.9 13.2 81 1.8 N 24 28 13 15 1005.5 - 5.2
22/08:00am 16.5 13.3 13.0 80 2.0 NNW 22 28 12 15 1005.3 1005.2 5.2
22/07:30am 16.6 12.6 13.1 80 2.0 N 26 37 14 20 1004.5 - 5.2
22/07:00am 16.4 11.2 12.8 79 2.0 N 32 37 17 20 1004.1 1004.0 5.2
22/06:30am 16.7 11.5 12.7 77 2.2 N 32 37 17 20 1003.9 - 5.2
22/06:00am 16.7 10.5 12.5 76 2.3 N 37 44 20 24 1003.6 1003.5 5.2
22/05:30am 16.7 10.1 12.5 76 2.3 N 39 48 21 26 1003.3 - 5.2
22/05:00am 16.6 10.1 12.8 78 2.1 N 39 46 21 25 1003.3 1003.2 5.2
22/04:30am 16.6 9.1 12.6 77 2.2 N 44 54 24 29 1002.8 - 5.2
22/04:00am 16.5 9.6 12.7 78 2.1 N 41 50 22 27 1002.7 1002.6 5.2
22/03:30am 16.7 9.5 12.0 74 2.6 N 41 54 22 29 1003.0 - 5.2
22/03:00am 16.4 9.0 12.4 77 2.2 N 43 56 23 30 1003.4 1003.3 5.2
22/02:46am 16.5 8.9 12.3 76 2.3 N 44 65 24 35 1003.5 - 5.2
22/02:30am 16.2 8.5 12.0 76 2.3 N 44 54 24 29 1003.7 - 5.2
22/02:00am 16.0 8.4 11.8 76 2.3 N 43 52 23 28 1004.4 1004.3 5.2
22/01:30am 15.6 10.2 12.7 83 1.6 N 33 41 18 22 1005.0 - 5.2
22/01:00am 15.1 9.8 12.6 85 1.4 N 32 39 17 21 1005.7 1005.6 5.2
22/12:30am 14.4 9.8 12.3 87 1.1 N 28 35 15 19 1006.5 - 5.2
22/12:00am 13.5 10.3 11.9 90 0.9 NNW 20 28 11 15 1007.5 1007.5 5.2
 
Date/Time
EST
Tmp

°C
App
Tmp
°C
Dew
Point
°C
Rel
Hum
%
Delta-T

°C
Wind Press
QNH
hPa
Press
MSL
hPa
Rain
since
9 am
mm
Dir
 
Spd
km/h
Gust
km/h
Spd
kts
Gust
kts
21/11:30pm 13.9 9.7 12.3 90 0.9 N 26 32 14 17 1008.0 - 5.2
21/11:00pm 13.8 9.3 12.5 92 0.7 N 28 32 15 17 1008.5 1008.5 5.2
21/10:30pm 13.3 8.6 12.0 92 0.7 N 28 35 15 19 1009.3 - 5.2
21/10:00pm 12.9 9.3 11.8 93 0.6 N 22 28 12 15 1009.8 1009.8 4.8
21/09:30pm 13.2 9.3 12.1 93 0.6 N 24 28 13 15 1010.5 - 4.2

Latest Capital City Observations: Canberra | Sydney | Melbourne | Brisbane | Adelaide | Perth | Hobart | Darwin

Other Formats:

Comma delimited format used in spreadsheet applications
http://www.bom.gov.au/fwo/IDT60901/IDT60901.95988.axf

JavaScript Object Notation format (JSON) in row-major order
http://www.bom.gov.au/fwo/IDT60901/IDT60901.95988.json